Time;durP1;ratioP1;P1;durP2;ratioP2;P2;SDS_P1;SDS_P2;PMS_P1;PMS_P2;Temp;Humidity;BMP_temperature;BMP_pressure;BME280_temperature;BME280_humidity;BME280_pressure;Samples;Min_cycle;Max_cycle;Signal;HPM_P1;HPM_P2
2023/05/04 00:01:09;;;;;;;5.10;2.40;;;;;;;13.52;48.00;100971.29;104803;1266;59577;-63
2023/05/04 00:03:37;;;;;;;4.10;2.40;;;;;;;13.46;48.11;100967.27;105223;1260;59660;-63
2023/05/04 00:06:04;;;;;;;7.80;2.70;;;;;;;13.44;48.19;100971.52;105006;1260;65741;-62
2023/05/04 00:08:33;;;;;;;4.90;2.50;;;;;;;13.43;48.24;100974.81;105047;1261;60766;-63
2023/05/04 00:11:00;;;;;;;7.20;2.40;;;;;;;13.41;48.27;100973.56;105255;1267;66480;-65
2023/05/04 00:13:27;;;;;;;6.10;2.40;;;;;;;13.38;48.32;100971.32;105125;1266;59519;-64
2023/05/04 00:15:55;;;;;;;4.30;2.10;;;;;;;13.34;48.35;100976.98;105310;1261;59725;-62
2023/05/04 00:18:22;;;;;;;6.40;2.40;;;;;;;13.29;48.43;100981.67;105073;1260;67096;-67
2023/05/04 00:20:48;;;;;;;5.50;2.30;;;;;;;13.23;48.60;100983.16;105374;1263;59547;-65
2023/05/04 00:23:15;;;;;;;5.80;2.30;;;;;;;13.19;48.77;100988.07;104994;1264;65620;-64
2023/05/04 00:25:42;;;;;;;6.00;2.70;;;;;;;13.14;48.99;100988.43;105103;1261;60586;-63
2023/05/04 00:28:09;;;;;;;5.40;2.50;;;;;;;13.09;48.92;100986.21;105153;1266;59561;-64
2023/05/04 00:30:36;;;;;;;5.30;2.60;;;;;;;13.05;49.11;100990.42;105118;1260;66035;-63
2023/05/04 00:33:03;;;;;;;5.70;2.40;;;;;;;13.01;49.19;100989.30;104985;1260;61310;-66
2023/05/04 00:35:30;;;;;;;7.60;2.50;;;;;;;12.96;49.29;100983.75;105424;1266;66571;-64
2023/05/04 00:37:57;;;;;;;7.10;2.40;;;;;;;12.91;49.36;100979.33;105009;1266;59703;-63
2023/05/04 00:40:24;;;;;;;4.10;2.30;;;;;;;12.89;49.52;100983.39;105206;1266;59648;-64
2023/05/04 00:42:51;;;;;;;8.20;2.60;;;;;;;12.87;49.61;100987.78;105540;1260;65761;-65
2023/05/04 00:45:18;;;;;;;6.20;2.50;;;;;;;12.84;49.73;100991.02;105160;1266;60797;-64
2023/05/04 00:47:45;;;;;;;3.70;2.20;;;;;;;12.81;49.74;100990.77;104947;1266;66568;-62
2023/05/04 00:50:12;;;;;;;5.50;2.40;;;;;;;12.79;49.87;100990.58;104983;1264;59662;-64
2023/05/04 00:52:40;;;;;;;8.30;2.40;;;;;;;12.74;50.00;100987.05;104860;1260;59552;-63
2023/05/04 00:55:08;;;;;;;5.30;2.30;;;;;;;12.72;50.01;100986.86;105007;1262;66498;-64
2023/05/04 00:57:37;;;;;;;8.70;2.30;;;;;;;12.69;50.03;100979.86;104958;1260;61045;-64
2023/05/04 01:00:07;;;;;;;6.20;2.10;;;;;;;12.65;50.15;100981.98;105134;1264;65524;-64
2023/05/04 01:02:34;;;;;;;7.70;2.50;;;;;;;12.63;50.33;100982.11;105303;1266;59625;-63
2023/05/04 01:05:01;;;;;;;8.90;2.70;;;;;;;12.63;50.36;100984.70;105064;1269;59638;-63
2023/05/04 01:07:38;;;;;;;4.60;2.30;;;;;;;12.63;50.41;100986.34;105277;1266;66871;-64
2023/05/04 01:10:14;;;;;;;4.50;2.40;;;;;;;12.62;50.32;100988.55;105249;1266;59682;-64
2023/05/04 01:12:51;;;;;;;5.70;2.50;;;;;;;12.61;50.41;100988.77;105144;1266;66545;-65
2023/05/04 01:15:18;;;;;;;5.90;2.50;;;;;;;12.60;50.49;100986.72;104999;1267;59650;-64
2023/05/04 01:17:46;;;;;;;4.50;2.30;;;;;;;12.61;50.47;100990.18;105204;1261;59697;-63
2023/05/04 01:20:13;;;;;;;6.40;2.40;;;;;;;12.61;50.40;100988.20;105010;1261;66625;-63
2023/05/04 01:22:40;;;;;;;6.00;2.30;;;;;;;12.62;50.42;100991.36;104901;1260;60939;-66
2023/05/04 01:25:08;;;;;;;5.30;2.10;;;;;;;12.61;50.38;100991.61;104958;1262;66768;-65
2023/05/04 01:27:48;;;;;;;5.10;2.30;;;;;;;12.57;50.44;100994.70;105123;1260;59745;-65
2023/05/04 01:30:24;;;;;;;6.10;2.50;;;;;;;12.56;50.36;100994.48;105326;1261;59624;-64
2023/05/04 01:32:51;;;;;;;8.50;3.00;;;;;;;12.56;50.48;100992.39;105227;1261;65813;-63
2023/05/04 01:35:18;;;;;;;7.10;2.70;;;;;;;12.56;50.38;100985.60;105065;1264;59948;-64
2023/05/04 01:37:45;;;;;;;5.70;2.80;;;;;;;12.56;50.54;100982.97;105220;1263;66825;-64
2023/05/04 01:40:12;;;;;;;7.90;2.40;;;;;;;12.54;50.66;100977.67;105740;1265;59653;-65
2023/05/04 01:42:40;;;;;;;5.20;2.70;;;;;;;12.52;50.76;100981.14;105211;1260;59724;-65
2023/05/04 01:45:10;;;;;;;5.90;3.00;;;;;;;12.51;50.83;100980.38;104938;1266;66847;-65
2023/05/04 01:47:37;;;;;;;6.40;2.60;;;;;;;12.51;50.68;100976.88;105051;1265;60837;-64
2023/05/04 01:50:04;;;;;;;7.90;2.50;;;;;;;12.50;50.76;100978.71;105311;1260;66576;-63
2023/05/04 01:52:32;;;;;;;8.60;2.70;;;;;;;12.47;50.77;100975.77;105033;1269;59759;-67
2023/05/04 01:54:59;;;;;;;5.60;2.50;;;;;;;12.42;50.81;100974.23;105125;1265;59816;-65
2023/05/04 01:57:26;;;;;;;5.80;3.00;;;;;;;12.38;50.88;100971.64;105164;1262;66801;-64
2023/05/04 01:59:53;;;;;;;5.60;2.60;;;;;;;12.36;50.93;100971.86;104727;1261;60869;-62
2023/05/04 02:02:20;;;;;;;8.10;2.90;;;;;;;12.33;51.05;100974.19;104935;1264;65454;-64
2023/05/04 02:04:47;;;;;;;5.80;2.70;;;;;;;12.25;51.18;100975.52;105234;1265;59748;-63
2023/05/04 02:07:14;;;;;;;5.80;3.00;;;;;;;12.16;51.38;100978.14;105202;1260;59657;-64
2023/05/04 02:09:41;;;;;;;5.20;2.70;;;;;;;12.08;51.55;100979.34;104897;1260;65526;-65
2023/05/04 02:12:08;;;;;;;8.00;3.40;;;;;;;12.03;51.70;100975.42;105073;1261;60854;-62
2023/05/04 02:14:35;;;;;;;5.40;2.80;;;;;;;11.99;51.84;100968.89;105183;1264;66873;-63
2023/05/04 02:17:03;;;;;;;10.60;3.20;;;;;;;11.96;51.86;100968.17;104929;1260;59663;-64
2023/05/04 02:19:30;;;;;;;5.80;2.90;;;;;;;11.92;52.03;100967.10;104904;1261;59581;-65
2023/05/04 02:21:57;;;;;;;4.90;2.80;;;;;;;11.85;52.17;100965.48;105113;1260;65919;-64
2023/05/04 02:24:23;;;;;;;7.20;3.00;;;;;;;11.78;52.42;100965.48;104786;1260;60639;-64
2023/05/04 02:26:50;;;;;;;4.50;3.00;;;;;;;11.73;52.59;100960.21;104712;1266;65259;-65
2023/05/04 02:29:17;;;;;;;7.80;3.00;;;;;;;11.71;52.67;100958.27;104990;1262;59551;-64
2023/05/04 02:31:44;;;;;;;5.50;2.80;;;;;;;11.70;52.75;100954.23;105286;1258;59653;-63
2023/05/04 02:34:12;;;;;;;6.40;3.00;;;;;;;11.70;52.81;100954.30;105423;1262;66676;-65
2023/05/04 02:36:45;;;;;;;10.00;3.00;;;;;;;11.69;52.79;100953.12;105588;1258;61946;-63
2023/05/04 02:39:13;;;;;;;6.10;3.30;;;;;;;11.68;52.91;100952.66;105441;1263;66259;-65
2023/05/04 02:41:40;;;;;;;7.40;3.00;;;;;;;11.68;53.00;100956.71;105208;1258;59287;-64
2023/05/04 02:44:06;;;;;;;4.80;3.00;;;;;;;11.69;52.99;100956.77;105026;1257;59685;-65
2023/05/04 02:46:33;;;;;;;8.50;2.90;;;;;;;11.71;53.12;100952.42;105584;1257;66890;-64
2023/05/04 02:49:00;;;;;;;6.10;2.50;;;;;;;11.70;53.05;100950.40;105384;1263;59789;-66
2023/05/04 02:51:27;;;;;;;5.20;2.80;;;;;;;11.65;53.13;100952.01;105564;1264;66292;-63
2023/05/04 02:53:54;;;;;;;4.50;2.80;;;;;;;11.60;53.09;100949.02;104995;1263;60376;-66
2023/05/04 02:56:23;;;;;;;5.00;2.70;;;;;;;11.54;53.18;100942.75;105179;1257;60495;-65
2023/05/04 02:58:50;;;;;;;5.50;3.00;;;;;;;11.49;53.42;100942.28;105127;1257;67990;-64
2023/05/04 03:01:17;;;;;;;8.30;2.90;;;;;;;11.45;53.57;100942.90;105012;1257;60893;-64
2023/05/04 03:03:44;;;;;;;4.80;2.90;;;;;;;11.45;53.74;100945.16;105231;1262;65328;-64
2023/05/04 03:06:11;;;;;;;5.10;3.10;;;;;;;11.48;53.69;100942.67;105083;1260;60479;-64
2023/05/04 03:08:38;;;;;;;9.50;3.20;;;;;;;11.51;53.78;100939.66;105167;1261;60296;-63
2023/05/04 03:11:05;;;;;;;5.20;2.80;;;;;;;11.55;53.81;100936.35;105227;1263;67937;-63
2023/05/04 03:13:33;;;;;;;5.60;3.00;;;;;;;11.60;53.73;100938.59;104883;1260;60841;-64
2023/05/04 03:16:01;;;;;;;5.80;3.20;;;;;;;11.62;53.54;100941.46;105180;1263;74399;-64
2023/05/04 03:18:28;;;;;;;5.30;2.70;;;;;;;11.62;53.37;100941.61;105472;1259;60393;-64
2023/05/04 03:21:13;;;;;;;5.40;3.00;;;;;;;11.63;53.45;100937.50;105378;1262;60399;-64
2023/05/04 03:23:41;;;;;;;7.30;2.80;;;;;;;11.63;53.49;100940.13;105077;1260;67456;-64
2023/05/04 03:26:08;;;;;;;3.60;2.20;;;;;;;11.65;53.54;100942.48;105055;1260;60717;-64
2023/05/04 03:28:35;;;;;;;7.60;2.60;;;;;;;11.68;53.44;100947.55;105112;1258;65135;-64
2023/05/04 03:31:02;;;;;;;5.40;2.60;;;;;;;11.71;53.36;100945.37;105129;1260;60545;-65
2023/05/04 03:33:29;;;;;;;6.30;2.80;;;;;;;11.76;53.41;100945.87;105409;1265;60466;-64
2023/05/04 03:35:56;;;;;;;7.30;2.90;;;;;;;11.81;53.31;100948.17;105328;1262;67712;-65
2023/05/04 03:38:23;;;;;;;6.40;2.80;;;;;;;11.86;53.38;100948.50;105292;1260;60402;-65
2023/05/04 03:40:51;;;;;;;7.00;2.60;;;;;;;11.92;53.25;100948.40;105585;1260;66581;-65
2023/05/04 03:43:17;;;;;;;4.20;2.60;;;;;;;12.00;53.28;100954.46;105186;1260;60487;-65
2023/05/04 03:45:45;;;;;;;4.20;2.80;;;;;;;12.05;53.25;100953.22;105203;1257;60814;-64
2023/05/04 03:48:12;;;;;;;8.60;3.10;;;;;;;12.12;53.06;100953.61;105192;1257;66239;-65
2023/05/04 03:50:39;;;;;;;6.20;3.00;;;;;;;12.20;52.80;100950.86;105114;1262;60713;-63
2023/05/04 03:53:07;;;;;;;8.60;3.50;;;;;;;12.26;52.61;100951.42;105284;1257;65607;-63
2023/05/04 03:55:33;;;;;;;9.30;4.10;;;;;;;12.30;52.42;100951.96;105592;1258;60479;-65
2023/05/04 03:58:00;;;;;;;8.50;3.80;;;;;;;12.38;52.47;100959.15;105705;1259;60585;-66
2023/05/04 04:00:28;;;;;;;11.90;4.40;;;;;;;12.45;52.29;100956.27;105648;1254;67388;-65
2023/05/04 04:02:58;;;;;;;10.30;4.50;;;;;;;12.51;52.16;100957.23;105663;1254;61140;-64
2023/05/04 04:05:27;;;;;;;7.90;4.40;;;;;;;12.55;52.13;100961.50;105952;1257;65161;-66
2023/05/04 04:07:56;;;;;;;6.80;4.70;;;;;;;12.58;52.18;100963.71;105736;1254;60438;-67
2023/05/04 04:10:23;;;;;;;9.10;5.20;;;;;;;12.63;52.07;100963.19;105303;1254;60521;-63
2023/05/04 04:12:50;;;;;;;10.00;5.00;;;;;;;12.68;51.99;100959.81;105527;1259;67771;-66
2023/05/04 04:15:17;;;;;;;10.70;4.70;;;;;;;12.72;51.86;100963.03;105456;1254;60924;-66
2023/05/04 04:17:44;;;;;;;9.10;4.50;;;;;;;12.76;51.87;100963.90;105329;1259;66432;-67
2023/05/04 04:20:11;;;;;;;8.30;3.80;;;;;;;12.81;51.78;100965.65;106392;1255;60402;-65
2023/05/04 04:22:38;;;;;;;9.40;3.80;;;;;;;12.86;51.67;100966.11;105821;1259;60313;-64
2023/05/04 04:25:06;;;;;;;8.10;3.60;;;;;;;12.92;51.49;100971.31;105754;1258;67625;-65
2023/05/04 04:27:33;;;;;;;10.90;3.50;;;;;;;12.98;51.42;100973.71;105929;1259;61526;-65
2023/05/04 04:30:00;;;;;;;13.60;3.70;;;;;;;13.03;51.22;100972.41;105324;1254;66683;-64
2023/05/04 04:32:27;;;;;;;7.30;3.10;;;;;;;13.06;51.16;100971.23;105933;1259;60433;-65
2023/05/04 04:34:54;;;;;;;5.90;3.40;;;;;;;13.10;51.27;100971.59;105410;1263;60598;-68
2023/05/04 04:37:21;;;;;;;5.60;3.10;;;;;;;13.17;51.40;100975.66;105337;1254;70939;-67
2023/05/04 04:39:48;;;;;;;5.70;2.60;;;;;;;13.26;51.39;100979.05;105517;1257;60405;-67
2023/05/04 04:42:16;;;;;;;7.50;2.80;;;;;;;13.35;51.32;100982.77;106179;1259;66350;-68
2023/05/04 04:44:44;;;;;;;7.90;2.80;;;;;;;13.42;51.03;100989.73;105320;1254;60396;-68
2023/05/04 04:47:11;;;;;;;4.50;2.60;;;;;;;13.49;50.81;100990.42;105453;1254;60345;-68
2023/05/04 04:49:38;;;;;;;6.40;2.70;;;;;;;13.55;50.59;100983.36;105441;1259;67664;-64
2023/05/04 04:52:05;;;;;;;5.90;2.60;;;;;;;13.61;50.59;100987.52;105449;1260;60373;-67
2023/05/04 04:54:32;;;;;;;10.90;2.80;;;;;;;13.68;50.61;100983.56;105484;1254;66252;-65
2023/05/04 04:56:59;;;;;;;5.00;2.80;;;;;;;13.76;50.49;100977.91;105630;1258;60437;-68
2023/05/04 04:59:27;;;;;;;8.80;3.00;;;;;;;13.81;50.22;100975.03;106245;1254;60462;-66
2023/05/04 05:01:53;;;;;;;6.30;2.70;;;;;;;13.87;50.38;100973.45;105375;1260;67614;-68
2023/05/04 05:04:21;;;;;;;6.90;2.90;;;;;;;13.97;50.48;100968.23;105417;1254;60449;-65
2023/05/04 05:06:48;;;;;;;7.50;3.10;;;;;;;14.08;50.21;100968.17;105983;1254;65535;-66
2023/05/04 05:09:15;;;;;;;5.00;2.80;;;;;;;14.18;49.90;100968.36;105409;1254;60863;-65
2023/05/04 05:11:42;;;;;;;5.20;2.90;;;;;;;14.26;49.53;100972.09;105484;1254;61163;-65
2023/05/04 05:14:09;;;;;;;6.00;3.30;;;;;;;14.36;49.34;100976.37;105608;1257;67469;-66
2023/05/04 05:16:36;;;;;;;8.40;3.20;;;;;;;14.46;49.11;100979.10;105455;1254;60845;-65
2023/05/04 05:19:03;;;;;;;6.20;3.10;;;;;;;14.54;48.93;100970.44;106205;1254;65603;-66
2023/05/04 05:21:30;;;;;;;10.60;2.80;;;;;;;14.61;48.93;100968.77;105667;1258;60434;-66
2023/05/04 05:23:57;;;;;;;10.40;3.50;;;;;;;14.67;48.61;100964.83;105573;1257;60300;-65
2023/05/04 05:26:24;;;;;;;11.50;3.30;;;;;;;14.73;48.54;100962.22;105386;1254;67918;-67
2023/05/04 05:28:51;;;;;;;7.30;3.10;;;;;;;14.82;48.73;100951.64;105537;1259;60382;-67
2023/05/04 05:31:17;;;;;;;6.00;3.10;;;;;;;14.93;48.54;100949.66;105304;1254;66577;-68
2023/05/04 05:33:45;;;;;;;5.80;3.30;;;;;;;15.03;48.26;100950.89;105326;1259;60414;-63
2023/05/04 05:36:13;;;;;;;6.60;3.10;;;;;;;15.16;48.18;100947.22;105245;1260;60849;-67
2023/05/04 05:38:40;;;;;;;6.30;3.10;;;;;;;15.27;47.95;100950.81;106093;1259;67868;-65
2023/05/04 05:41:08;;;;;;;7.70;3.10;;;;;;;15.39;47.78;100949.89;105415;1254;62188;-65
2023/05/04 05:43:37;;;;;;;9.70;3.40;;;;;;;15.51;47.64;100952.55;105646;1254;66247;-65
2023/05/04 05:46:06;;;;;;;8.50;3.00;;;;;;;15.64;47.45;100957.96;105927;1253;60577;-67
2023/05/04 05:48:34;;;;;;;8.60;2.90;;;;;;;15.78;47.47;100960.02;105619;1254;60543;-65
2023/05/04 05:51:01;;;;;;;7.60;2.70;;;;;;;15.94;47.44;100959.11;105434;1254;66400;-63
2023/05/04 05:53:28;;;;;;;5.80;2.50;;;;;;;16.07;46.90;100954.37;105447;1253;60934;-64
2023/05/04 05:55:55;;;;;;;6.30;2.40;;;;;;;16.16;46.60;100955.48;105412;1260;65487;-64
2023/05/04 05:58:22;;;;;;;9.10;2.70;;;;;;;16.24;46.44;100955.97;105350;1259;60562;-66
2023/05/04 06:00:49;;;;;;;6.50;2.50;;;;;;;16.35;46.37;100954.52;105868;1254;60495;-66
2023/05/04 06:03:16;;;;;;;4.30;2.20;;;;;;;16.49;46.23;100953.92;105358;1253;66713;-66
2023/05/04 06:05:43;;;;;;;3.70;2.00;;;;;;;16.58;45.55;100956.09;105486;1254;60521;-64
2023/05/04 06:08:10;;;;;;;5.90;2.40;;;;;;;16.62;45.52;100956.80;105641;1254;66619;-64
2023/05/04 06:10:37;;;;;;;6.00;2.30;;;;;;;16.66;45.33;100954.58;105315;1260;60537;-65
2023/05/04 06:13:04;;;;;;;4.30;1.90;;;;;;;16.72;45.69;100955.26;105481;1256;60734;-67
2023/05/04 06:15:31;;;;;;;6.90;2.50;;;;;;;16.84;45.87;100952.51;105633;1257;67681;-66
2023/05/04 06:17:57;;;;;;;4.70;2.20;;;;;;;17.00;45.74;100954.36;105514;1260;60425;-63
2023/05/04 06:20:25;;;;;;;6.20;2.40;;;;;;;17.13;45.30;100957.73;107058;1254;65187;-66
2023/05/04 06:22:52;;;;;;;5.30;2.10;;;;;;;17.21;44.95;100959.99;105217;1260;60604;-63
2023/05/04 06:25:19;;;;;;;6.90;2.10;;;;;;;17.30;45.08;100963.40;105499;1254;60492;-65
2023/05/04 06:27:46;;;;;;;6.10;2.50;;;;;;;17.40;44.63;100957.89;105322;1259;67757;-65
2023/05/04 06:30:14;;;;;;;8.10;2.40;;;;;;;17.46;44.47;100955.69;105433;1258;60550;-64
2023/05/04 06:32:42;;;;;;;5.40;2.20;;;;;;;17.55;44.32;100956.11;105395;1259;66540;-63
2023/05/04 06:35:09;;;;;;;4.60;1.80;;;;;;;17.63;43.85;100957.38;105459;1254;60552;-66
2023/05/04 06:37:36;;;;;;;5.20;2.00;;;;;;;17.71;43.76;100963.92;105270;1261;60448;-64
2023/05/04 06:40:04;;;;;;;6.50;2.10;;;;;;;17.80;43.76;100969.55;105463;1259;67811;-64
2023/05/04 06:42:31;;;;;;;6.80;2.00;;;;;;;17.90;43.70;100970.84;105549;1260;61233;-64
2023/05/04 06:44:58;;;;;;;4.60;1.70;;;;;;;18.00;43.50;100972.05;105573;1254;66636;-64
2023/05/04 06:47:25;;;;;;;6.90;1.90;;;;;;;18.07;42.91;100967.59;105719;1251;61017;-65
2023/05/04 06:49:52;;;;;;;5.40;2.00;;;;;;;18.14;43.19;100964.67;105477;1258;60594;-65
2023/05/04 06:52:20;;;;;;;4.50;2.00;;;;;;;18.24;42.78;100959.20;105424;1258;67569;-67
2023/05/04 06:54:47;;;;;;;5.30;1.70;;;;;;;18.33;42.46;100961.77;105398;1254;60521;-64
2023/05/04 06:57:14;;;;;;;5.40;1.80;;;;;;;18.39;42.40;100961.43;105379;1257;66342;-63
2023/05/04 06:59:41;;;;;;;3.70;1.70;;;;;;;18.47;42.13;100958.09;105531;1254;60582;-64
2023/05/04 07:02:08;;;;;;;5.40;1.80;;;;;;;18.54;41.76;100961.09;105565;1257;60479;-64
2023/05/04 07:04:36;;;;;;;3.50;1.60;;;;;;;18.63;41.86;100957.89;105430;1255;69021;-64
2023/05/04 07:07:02;;;;;;;2.90;1.70;;;;;;;18.79;41.55;100957.42;105391;1254;61239;-67
2023/05/04 07:09:29;;;;;;;5.00;2.20;;;;;;;18.83;41.02;100953.86;105675;1255;66142;-64
2023/05/04 07:11:56;;;;;;;3.00;1.80;;;;;;;18.85;40.75;100956.31;106011;1258;60438;-65
2023/05/04 07:14:23;;;;;;;4.60;1.60;;;;;;;18.90;40.97;100952.18;107786;1253;61032;-67
2023/05/04 07:16:50;;;;;;;4.00;1.70;;;;;;;18.98;40.99;100947.98;107970;1253;67520;-65
2023/05/04 07:19:17;;;;;;;4.30;1.60;;;;;;;19.07;41.01;100945.60;107058;1256;60379;-65
2023/05/04 07:21:44;;;;;;;4.70;1.80;;;;;;;19.21;40.93;100945.14;105767;1259;65452;-66
2023/05/04 07:24:11;;;;;;;6.40;1.70;;;;;;;19.38;40.62;100944.34;105816;1257;60375;-65
2023/05/04 07:26:37;;;;;;;7.90;1.90;;;;;;;19.55;40.10;100940.93;105698;1260;60437;-64
2023/05/04 07:29:04;;;;;;;3.00;1.80;;;;;;;19.69;39.63;100941.95;105646;1259;66672;-65
2023/05/04 07:31:32;;;;;;;4.40;1.70;;;;;;;19.80;39.24;100944.80;105834;1253;60924;-65
2023/05/04 07:33:59;;;;;;;3.50;1.70;;;;;;;19.92;38.83;100945.30;106255;1254;66417;-68
2023/05/04 07:36:26;;;;;;;5.60;1.50;;;;;;;20.06;38.37;100942.51;105896;1260;60521;-64
2023/05/04 07:38:53;;;;;;;7.80;2.60;;;;;;;20.21;37.39;100940.14;105509;1258;61039;-64
2023/05/04 07:41:20;;;;;;;14.50;9.80;;;;;;;20.36;36.55;100938.80;105450;1260;66585;-64
2023/05/04 07:43:47;;;;;;;11.70;7.80;;;;;;;20.49;35.99;100940.23;105788;1257;60522;-65
2023/05/04 07:46:15;;;;;;;10.20;5.90;;;;;;;20.60;35.52;100942.95;105666;1257;66222;-66
2023/05/04 07:48:44;;;;;;;7.00;4.00;;;;;;;20.66;35.33;100940.85;105884;1257;60427;-65
2023/05/04 07:51:13;;;;;;;4.20;1.80;;;;;;;20.70;34.93;100940.20;105373;1254;60437;-68
2023/05/04 07:53:40;;;;;;;1.80;1.40;;;;;;;20.74;34.33;100940.11;105886;1259;67989;-67
2023/05/04 07:56:11;;;;;;;3.40;1.50;;;;;;;20.79;33.65;100944.28;105730;1254;60533;-65
2023/05/04 07:58:38;;;;;;;3.60;1.30;;;;;;;20.82;32.36;100946.71;106303;1257;64958;-66
2023/05/04 08:01:05;;;;;;;2.10;1.40;;;;;;;20.83;31.98;100942.27;105983;1258;60406;-65
2023/05/04 08:03:31;;;;;;;5.50;1.50;;;;;;;20.88;32.85;100938.27;105695;1257;60342;-66
2023/05/04 08:05:58;;;;;;;3.90;1.40;;;;;;;20.97;33.01;100937.66;105436;1259;67542;-66
2023/05/04 08:08:25;;;;;;;4.30;2.00;;;;;;;21.06;32.84;100938.14;105994;1257;60775;-66
2023/05/04 08:10:53;;;;;;;3.20;1.50;;;;;;;21.18;32.83;100934.68;105524;1257;66256;-68
2023/05/04 08:13:30;;;;;;;2.40;1.30;;;;;;;21.29;32.70;100934.13;105596;1254;60618;-66
2023/05/04 08:16:00;;;;;;;5.90;2.10;;;;;;;21.41;31.97;100930.03;105726;1257;60534;-67
2023/05/04 08:18:27;;;;;;;6.20;1.40;;;;;;;21.51;32.24;100922.03;105577;1260;67721;-68
2023/05/04 08:20:54;;;;;;;3.40;1.40;;;;;;;21.63;32.30;100924.42;106289;1253;60377;-67
2023/05/04 08:23:21;;;;;;;5.20;1.30;;;;;;;21.70;31.89;100926.81;106067;1259;66237;-66
2023/05/04 08:25:48;;;;;;;3.20;1.20;;;;;;;21.66;32.29;100923.66;105530;1268;60481;-69
2023/05/04 08:28:16;;;;;;;2.40;1.30;;;;;;;21.65;32.44;100924.67;105779;1255;60529;-67
2023/05/04 08:30:44;;;;;;;2.80;1.40;;;;;;;21.68;32.60;100923.77;105695;1259;67152;-65
2023/05/04 08:33:11;;;;;;;4.40;1.20;;;;;;;21.76;32.38;100921.99;105970;1257;60785;-66
2023/05/04 08:35:40;;;;;;;3.50;1.20;;;;;;;21.81;31.94;100922.82;105437;1260;65273;-68
2023/05/04 08:38:08;;;;;;;1.70;1.30;;;;;;;21.82;31.86;100921.62;105490;1251;60714;-67
2023/05/04 08:40:35;;;;;;;5.60;1.20;;;;;;;21.83;31.70;100921.01;105643;1258;60392;-68
2023/05/04 08:43:02;;;;;;;4.10;1.30;;;;;;;21.86;31.82;100922.61;105801;1255;67905;-67
2023/05/04 08:45:32;;;;;;;2.50;1.20;;;;;;;21.91;31.40;100921.83;105739;1264;61214;-69
2023/05/04 08:47:59;;;;;;;3.10;1.00;;;;;;;21.97;30.38;100920.55;105651;1256;65423;-69
2023/05/04 08:50:26;;;;;;;2.90;1.20;;;;;;;22.04;29.86;100913.64;105748;1254;60569;-66
2023/05/04 08:52:53;;;;;;;1.60;1.30;;;;;;;22.17;29.38;100915.23;105401;1260;60366;-67
2023/05/04 08:55:20;;;;;;;5.00;1.60;;;;;;;22.29;29.18;100912.43;105460;1261;67410;-68
2023/05/04 08:57:47;;;;;;;3.00;1.20;;;;;;;22.38;29.26;100914.55;106042;1260;60431;-66
2023/05/04 09:00:17;;;;;;;2.80;1.30;;;;;;;22.50;28.85;100914.84;106068;1257;66624;-72
2023/05/04 09:02:44;;;;;;;2.60;1.20;;;;;;;22.55;28.44;100912.98;105279;1254;60482;-73
2023/05/04 09:05:12;;;;;;;3.30;1.20;;;;;;;22.58;28.45;100909.80;105533;1255;60306;-74
2023/05/04 09:07:39;;;;;;;2.60;1.10;;;;;;;22.57;28.49;100909.77;105577;1260;67593;-71
2023/05/04 09:10:06;;;;;;;3.00;1.80;;;;;;;22.61;28.16;100905.33;105829;1257;60864;-73
2023/05/04 09:12:36;;;;;;;2.00;1.10;;;;;;;22.74;27.07;100909.23;106008;1254;66602;-73
2023/05/04 09:15:17;;;;;;;6.80;1.40;;;;;;;22.80;24.98;100910.27;105792;1265;60447;-72
2023/05/04 09:18:00;;;;;;;3.70;1.60;;;;;;;22.73;25.05;100912.66;105621;1255;60441;-70
2023/05/04 09:20:28;;;;;;;3.00;1.80;;;;;;;22.64;25.55;100912.95;105659;1254;66516;-73
2023/05/04 09:23:06;;;;;;;2.60;1.00;;;;;;;22.62;24.90;100915.45;105960;1258;60790;-73
2023/05/04 09:25:49;;;;;;;3.70;1.30;;;;;;;22.68;25.06;100918.13;105479;1269;66344;-72
2023/05/04 09:28:17;;;;;;;3.40;1.80;;;;;;;22.86;25.56;100908.35;105576;1262;60553;-73
2023/05/04 09:30:45;;;;;;;6.90;5.20;;;;;;;23.07;25.79;100907.86;105688;1260;60393;-75
2023/05/04 09:33:12;;;;;;;4.30;1.30;;;;;;;23.23;25.29;100906.11;105666;1255;66395;-71
2023/05/04 09:35:40;;;;;;;6.40;3.60;;;;;;;23.33;25.26;100898.05;105821;1258;60926;-71
2023/05/04 09:38:08;;;;;;;4.40;1.70;;;;;;;23.48;25.11;100897.59;105645;1255;66641;-73
2023/05/04 09:40:39;;;;;;;3.80;1.10;;;;;;;23.59;25.72;100891.84;105825;1257;60418;-73
2023/05/04 09:43:08;;;;;;;1.70;1.40;;;;;;;23.68;26.48;100891.20;105822;1255;60303;-72
2023/05/04 09:45:42;;;;;;;4.90;1.60;;;;;;;23.77;26.37;100885.05;106043;1255;67272;-73
2023/05/04 09:48:19;;;;;;;2.40;1.30;;;;;;;23.82;26.39;100880.88;105776;1254;60636;-71
2023/05/04 09:50:54;;;;;;;3.10;1.50;;;;;;;23.87;26.78;100876.61;105591;1254;66637;-71
2023/05/04 09:53:25;;;;;;;5.50;1.50;;;;;;;23.98;26.79;100870.54;105712;1258;60445;-71
2023/05/04 09:55:55;;;;;;;2.60;1.60;;;;;;;24.09;26.81;100872.31;105732;1254;60435;-70
2023/05/04 09:58:22;;;;;;;4.00;1.50;;;;;;;24.07;25.73;100872.96;105940;1254;67539;-73
2023/05/04 10:00:49;;;;;;;3.80;1.60;;;;;;;23.93;26.51;100872.77;106001;1259;60498;-71
2023/05/04 10:03:16;;;;;;;3.00;2.20;;;;;;;23.91;26.46;100876.09;105523;1257;65386;-69
2023/05/04 10:05:44;;;;;;;5.60;3.10;;;;;;;23.96;26.80;100879.88;106152;1255;60422;-72
2023/05/04 10:08:11;;;;;;;2.80;1.10;;;;;;;24.15;26.39;100875.46;105841;1259;60355;-72
2023/05/04 10:10:38;;;;;;;2.90;1.50;;;;;;;24.39;26.61;100867.53;105851;1261;66776;-71
2023/05/04 10:13:05;;;;;;;3.30;2.40;;;;;;;24.65;26.30;100867.49;105539;1260;60413;-72
2023/05/04 10:15:32;;;;;;;9.40;5.80;;;;;;;24.90;26.51;100864.01;106132;1254;65343;-72
2023/05/04 10:18:19;;;;;;;5.20;3.40;;;;;;;25.17;25.73;100865.88;105538;1256;60537;-71
2023/05/04 10:20:59;;;;;;;6.10;1.80;;;;;;;25.29;25.32;100859.20;105740;1254;60521;-70
2023/05/04 10:23:53;;;;;;;5.70;3.00;;;;;;;25.27;25.72;100854.11;105667;1260;67467;-71
2023/05/04 10:26:23;;;;;;;;;;;;;;;25.26;25.93;100853.33;105630;1254;60142;-70
2023/05/04 10:29:12;;;;;;;2.60;1.80;;;;;;;25.21;25.81;100858.18;105521;1261;66499;-68
2023/05/04 10:31:41;;;;;;;5.40;2.40;;;;;;;25.11;25.71;100852.02;106431;1254;60441;-74
2023/05/04 10:34:09;;;;;;;3.30;1.70;;;;;;;25.12;26.24;100843.70;105852;1255;60547;-72
2023/05/04 10:36:40;;;;;;;17.20;15.50;;;;;;;25.23;25.82;100847.38;105933;1258;66699;-72
2023/05/04 10:39:20;;;;;;;4.00;2.30;;;;;;;25.23;25.00;100839.89;105797;1257;60744;-73
2023/05/04 10:42:00;;;;;;;7.70;5.50;;;;;;;25.13;25.35;100836.88;105766;1261;65651;-71
2023/05/04 10:44:28;;;;;;;4.60;3.10;;;;;;;25.17;25.80;100840.30;106136;1257;60386;-73
2023/05/04 10:46:59;;;;;;;5.80;2.00;;;;;;;25.27;25.23;100838.57;105524;1260;61159;-71
2023/05/04 10:49:26;;;;;;;9.70;4.50;;;;;;;25.28;24.76;100835.52;105659;1258;67502;-71
2023/05/04 10:52:14;;;;;;;48.50;15.00;;;;;;;25.28;25.29;100837.11;105816;1254;60463;-70
2023/05/04 10:54:42;;;;;;;10.30;4.20;;;;;;;25.38;25.69;100838.83;105428;1260;66296;-71
2023/05/04 10:57:12;;;;;;;13.10;5.50;;;;;;;25.49;25.60;100837.33;105338;1261;60488;-71
2023/05/04 10:59:40;;;;;;;7.40;3.60;;;;;;;25.54;25.57;100838.44;105645;1260;60581;-70
2023/05/04 11:02:07;;;;;;;12.00;5.40;;;;;;;25.65;25.24;100835.36;105614;1258;67770;-72
2023/05/04 11:04:34;;;;;;;6.20;2.10;;;;;;;25.84;24.95;100829.48;105643;1254;60556;-71
2023/05/04 11:07:04;;;;;;;3.40;1.90;;;;;;;26.09;24.58;100829.37;105622;1258;65519;-73
2023/05/04 11:09:40;;;;;;;2.30;1.50;;;;;;;26.27;24.21;100827.81;105348;1254;60539;-73
2023/05/04 11:12:10;;;;;;;5.60;1.80;;;;;;;26.51;24.13;100821.12;105425;1260;64845;-74
2023/05/04 11:14:41;;;;;;;7.40;1.70;;;;;;;26.72;24.04;100815.96;105906;1257;67228;-72
2023/05/04 11:17:10;;;;;;;2.80;1.60;;;;;;;26.81;23.71;100816.28;105794;1254;60890;-74
2023/05/04 11:19:52;;;;;;;4.20;1.60;;;;;;;26.70;23.18;100817.39;106018;1255;66384;-69
2023/05/04 11:22:19;;;;;;;3.00;1.60;;;;;;;26.43;22.95;100818.89;105646;1254;60612;-68